Terminal Aerodrome Forecast
Issued by NWS Greer, SC

Home | Current Version | Previous Version | Text Only | Print | Product List | Glossary On
Versions: 1 2 3 4 5 6 7 8 9 10 11 12 13
000
FTUS42 KGSP 191739
TAFGSP
TAF
KGSP 191739Z 1918/2018 09003KT P6SM BKN250
     FM200500 00000KT P6SM OVC100
     FM200900 03004KT P6SM -RA OVC050
     FM201500 06003KT P6SM BKN050=

USA.gov is the U.S. government's official web portal to all federal, state and local government web resources and services.